Time;durP1;ratioP1;P1;durP2;ratioP2;P2;SDS_P1;SDS_P2;PMS_P1;PMS_P2;Temp;Humidity;BMP_temperature;BMP_pressure;BME280_temperature;BME280_humidity;BME280_pressure;Samples;Min_cycle;Max_cycle;Signal;HPM_P1;HPM_P2
2022/02/26 00:00:31;;;;;;;7.28;2.35;;;;;;;;;;5117311;28;20127;-77
2022/02/26 00:02:59;;;;;;;3.72;1.92;;;;;;;;;;5117095;28;20122;-77
2022/02/26 00:05:25;;;;;;;6.30;2.13;;;;;;;;;;5117142;28;20131;-77
2022/02/26 00:07:52;;;;;;;4.82;2.08;;;;;;;;;;5117295;28;20103;-77
2022/02/26 00:10:19;;;;;;;4.95;2.38;;;;;;;;;;5116303;28;20040;-77
2022/02/26 00:12:45;;;;;;;7.10;2.17;;;;;;;;;;5117487;28;20075;-78
2022/02/26 00:15:12;;;;;;;6.82;2.45;;;;;;;;;;5117547;28;20067;-77
2022/02/26 00:17:38;;;;;;;4.20;2.00;;;;;;;;;;5117288;28;20157;-77
2022/02/26 00:20:07;;;;;;;6.57;2.08;;;;;;;;;;5117325;28;20066;-77
2022/02/26 00:22:34;;;;;;;7.65;2.67;;;;;;;;;;5117637;28;20372;-77
2022/02/26 00:25:00;;;;;;;6.88;3.58;;;;;;;;;;5116547;28;20468;-77
2022/02/26 00:27:27;;;;;;;7.32;2.30;;;;;;;;;;5116252;28;20086;-77
2022/02/26 00:29:53;;;;;;;7.65;2.50;;;;;;;;;;5115779;28;20503;-77
2022/02/26 00:32:20;;;;;;;9.18;2.72;;;;;;;;;;5116601;28;20094;-77
2022/02/26 00:34:46;;;;;;;9.38;2.38;;;;;;;;;;5115348;28;20083;-77
2022/02/26 00:37:15;;;;;;;6.07;2.22;;;;;;;;;;5116105;28;20071;-77
2022/02/26 00:39:41;;;;;;;5.05;2.55;;;;;;;;;;5116070;28;20391;-77
2022/02/26 00:42:08;;;;;;;6.05;2.33;;;;;;;;;;5116026;28;20559;-77
2022/02/26 00:44:35;;;;;;;4.53;2.30;;;;;;;;;;5116739;28;20089;-77
2022/02/26 00:47:01;;;;;;;5.07;3.15;;;;;;;;;;5115384;28;20552;-77
2022/02/26 00:49:52;;;;;;;7.20;2.35;;;;;;;;;;5115657;28;20071;-77
2022/02/26 00:52:23;;;;;;;5.18;2.30;;;;;;;;;;5116864;28;20112;-77
2022/02/26 00:54:49;;;;;;;7.47;2.17;;;;;;;;;;5115381;28;20580;-78
2022/02/26 00:57:16;;;;;;;6.95;3.00;;;;;;;;;;5116456;28;20044;-77
2022/02/26 00:59:43;;;;;;;9.20;2.78;;;;;;;;;;5116209;28;20055;-77
2022/02/26 01:02:10;;;;;;;8.15;1.95;;;;;;;;;;5115685;28;20074;-77
2022/02/26 01:04:38;;;;;;;4.47;2.17;;;;;;;;;;5117174;28;20078;-78
2022/02/26 01:07:05;;;;;;;5.35;2.13;;;;;;;;;;5117175;28;20144;-78
2022/02/26 01:09:33;;;;;;;4.82;2.30;;;;;;;;;;5116354;28;20083;-78
2022/02/26 01:12:00;;;;;;;7.38;2.30;;;;;;;;;;5116966;28;20075;-78
2022/02/26 01:14:26;;;;;;;9.70;2.88;;;;;;;;;;5117042;28;20061;-77
2022/02/26 01:16:53;;;;;;;6.93;2.40;;;;;;;;;;5117090;28;20071;-78
2022/02/26 01:19:20;;;;;;;6.22;2.53;;;;;;;;;;5116557;28;20479;-77
2022/02/26 01:21:46;;;;;;;9.60;2.78;;;;;;;;;;5116711;28;20040;-77
2022/02/26 01:24:13;;;;;;;6.55;1.90;;;;;;;;;;5116746;28;20078;-77
2022/02/26 01:26:41;;;;;;;4.90;2.42;;;;;;;;;;5116041;28;20090;-77
2022/02/26 01:29:08;;;;;;;4.93;2.55;;;;;;;;;;5116359;28;20075;-77
2022/02/26 01:31:34;;;;;;;4.60;2.80;;;;;;;;;;5115479;28;20581;-78
2022/02/26 01:34:01;;;;;;;6.10;2.17;;;;;;;;;;5115411;28;20082;-78
2022/02/26 01:36:27;;;;;;;4.72;2.08;;;;;;;;;;5117094;28;20071;-78
2022/02/26 01:38:54;;;;;;;4.07;1.83;;;;;;;;;;5116601;28;20079;-78
2022/02/26 01:41:21;;;;;;;4.80;2.38;;;;;;;;;;5116342;28;20108;-78
2022/02/26 01:43:49;;;;;;;8.38;2.25;;;;;;;;;;5116516;28;20074;-77
2022/02/26 01:46:16;;;;;;;5.10;2.25;;;;;;;;;;5116131;28;20119;-77
2022/02/26 01:48:42;;;;;;;7.63;4.10;;;;;;;;;;5115981;28;20127;-77
2022/02/26 01:51:10;;;;;;;7.28;2.30;;;;;;;;;;5116272;28;20075;-77
2022/02/26 01:53:37;;;;;;;4.10;2.70;;;;;;;;;;5115305;28;20499;-77
2022/02/26 01:56:05;;;;;;;8.45;2.75;;;;;;;;;;5115539;28;20143;-77
2022/02/26 01:58:32;;;;;;;7.55;2.42;;;;;;;;;;5116010;28;20044;-77
2022/02/26 02:01:00;;;;;;;6.95;3.25;;;;;;;;;;5115843;28;20510;-77
2022/02/26 02:03:26;;;;;;;8.85;2.72;;;;;;;;;;5116249;28;20036;-77
2022/02/26 02:05:55;;;;;;;9.75;2.33;;;;;;;;;;5115531;28;20086;-77
2022/02/26 02:08:21;;;;;;;6.22;2.60;;;;;;;;;;5115235;28;20079;-77
2022/02/26 02:10:50;;;;;;;5.78;3.10;;;;;;;;;;5117049;28;20081;-77
2022/02/26 02:13:17;;;;;;;6.97;2.55;;;;;;;;;;5119666;28;20066;-77
2022/02/26 02:15:44;;;;;;;9.65;2.38;;;;;;;;;;5119766;28;20040;-77
2022/02/26 02:18:13;;;;;;;5.57;2.60;;;;;;;;;;5118251;28;20452;-77
2022/02/26 02:20:41;;;;;;;7.80;3.33;;;;;;;;;;5119251;28;20134;-77
2022/02/26 02:23:09;;;;;;;8.05;2.50;;;;;;;;;;5118828;28;20536;-77
2022/02/26 02:25:37;;;;;;;8.50;3.88;;;;;;;;;;5119057;28;20079;-77
2022/02/26 02:28:05;;;;;;;7.88;3.40;;;;;;;;;;5119781;28;20039;-78
2022/02/26 02:30:32;;;;;;;7.50;2.92;;;;;;;;;;5119620;28;20075;-77
2022/02/26 02:32:59;;;;;;;7.88;3.10;;;;;;;;;;5118843;28;20486;-78
2022/02/26 02:35:28;;;;;;;6.70;2.40;;;;;;;;;;5117960;28;20075;-77
2022/02/26 02:37:55;;;;;;;5.78;2.35;;;;;;;;;;5120060;28;20075;-78
2022/02/26 02:40:24;;;;;;;9.02;2.80;;;;;;;;;;5118190;28;20039;-78
2022/02/26 02:42:51;;;;;;;5.95;2.80;;;;;;;;;;5118430;28;20507;-77
2022/02/26 02:45:18;;;;;;;6.03;2.72;;;;;;;;;;5119454;28;20043;-77
2022/02/26 02:47:44;;;;;;;5.00;2.58;;;;;;;;;;5118565;28;20092;-77
2022/02/26 02:50:11;;;;;;;6.15;3.42;;;;;;;;;;5118745;28;20482;-77
2022/02/26 02:52:37;;;;;;;6.97;3.67;;;;;;;;;;5117894;28;20126;-77
2022/02/26 02:55:06;;;;;;;10.73;4.00;;;;;;;;;;5118032;28;20543;-77
2022/02/26 02:57:34;;;;;;;7.32;3.00;;;;;;;;;;5119158;28;20051;-78
2022/02/26 03:00:01;;;;;;;7.47;3.33;;;;;;;;;;5118408;28;20075;-78
2022/02/26 03:02:27;;;;;;;8.35;3.25;;;;;;;;;;5118615;28;20062;-78
2022/02/26 03:04:54;;;;;;;8.23;2.70;;;;;;;;;;5118527;28;20059;-78
2022/02/26 03:07:27;;;;;;;7.15;3.63;;;;;;;;;;5119104;28;20079;-78
2022/02/26 03:09:54;;;;;;;8.18;3.53;;;;;;;;;;5119300;28;20040;-77
2022/02/26 03:12:20;;;;;;;7.82;3.42;;;;;;;;;;5118838;28;20074;-77
2022/02/26 03:14:48;;;;;;;6.97;3.40;;;;;;;;;;5118708;28;20126;-77
2022/02/26 03:17:15;;;;;;;11.27;3.95;;;;;;;;;;5118216;28;20082;-77
2022/02/26 03:19:42;;;;;;;10.45;4.18;;;;;;;;;;5118736;28;20047;-78
2022/02/26 03:22:09;;;;;;;7.43;3.85;;;;;;;;;;5118497;28;20039;-77
2022/02/26 03:24:35;;;;;;;8.15;3.13;;;;;;;;;;5118125;28;20131;-77
2022/02/26 03:27:02;;;;;;;6.20;3.65;;;;;;;;;;5118546;28;20043;-77
2022/02/26 03:29:29;;;;;;;16.55;4.90;;;;;;;;;;5117826;28;20079;-77
2022/02/26 03:31:58;;;;;;;7.28;3.47;;;;;;;;;;5117757;28;20035;-77
2022/02/26 03:34:39;;;;;;;7.53;4.07;;;;;;;;;;5116588;28;20109;-77
2022/02/26 03:37:06;;;;;;;6.55;4.07;;;;;;;;;;5118753;28;20067;-78
2022/02/26 03:39:33;;;;;;;7.80;4.03;;;;;;;;;;5118568;28;20114;-77
2022/02/26 03:42:00;;;;;;;7.45;4.22;;;;;;;;;;5118007;28;20039;-77
2022/02/26 03:44:27;;;;;;;7.15;3.55;;;;;;;;;;5117611;28;20547;-78
2022/02/26 03:46:54;;;;;;;8.68;3.78;;;;;;;;;;5117652;28;20044;-78
2022/02/26 03:49:21;;;;;;;7.57;3.65;;;;;;;;;;5118340;28;20435;-78
2022/02/26 03:51:48;;;;;;;9.07;4.47;;;;;;;;;;5117289;28;20518;-78
2022/02/26 03:54:15;;;;;;;9.63;3.97;;;;;;;;;;5118408;28;20071;-78
2022/02/26 03:56:41;;;;;;;9.55;4.00;;;;;;;;;;5117944;28;20106;-78
2022/02/26 03:59:08;;;;;;;7.97;3.90;;;;;;;;;;5118466;28;20062;-78
2022/02/26 04:01:35;;;;;;;6.25;3.88;;;;;;;;;;5117805;28;20046;-78
2022/02/26 04:04:02;;;;;;;9.88;4.53;;;;;;;;;;5118711;28;20063;-78
2022/02/26 04:06:30;;;;;;;6.60;3.58;;;;;;;;;;5117402;28;20510;-78
2022/02/26 04:08:56;;;;;;;7.75;4.13;;;;;;;;;;5117549;28;20071;-78
2022/02/26 04:11:23;;;;;;;8.68;4.72;;;;;;;;;;5118440;28;20070;-78
2022/02/26 04:13:49;;;;;;;7.45;3.50;;;;;;;;;;5118237;28;20058;-78
2022/02/26 04:16:16;;;;;;;9.07;4.47;;;;;;;;;;5117069;28;20479;-78
2022/02/26 04:18:42;;;;;;;10.95;3.72;;;;;;;;;;5117836;28;20135;-78
2022/02/26 04:21:09;;;;;;;6.18;3.70;;;;;;;;;;5119126;28;20074;-78
2022/02/26 04:23:37;;;;;;;6.55;3.65;;;;;;;;;;5119855;28;20078;-78
2022/02/26 04:26:03;;;;;;;8.02;4.38;;;;;;;;;;5123607;28;20059;-77
2022/02/26 04:28:30;;;;;;;10.85;4.22;;;;;;;;;;5124288;28;20074;-77
2022/02/26 04:30:56;;;;;;;8.60;4.47;;;;;;;;;;5125162;28;20101;-77
2022/02/26 04:33:29;;;;;;;15.07;5.80;;;;;;;;;;5123153;28;20082;-77
2022/02/26 04:35:58;;;;;;;7.68;4.25;;;;;;;;;;5118653;28;20071;-77
2022/02/26 04:38:24;;;;;;;8.95;5.10;;;;;;;;;;5117754;28;20167;-77
2022/02/26 04:40:52;;;;;;;8.93;4.63;;;;;;;;;;5116826;28;20479;-77
2022/02/26 04:43:19;;;;;;;10.35;5.32;;;;;;;;;;5116704;28;20079;-78
2022/02/26 04:45:46;;;;;;;8.98;4.90;;;;;;;;;;5115540;28;20082;-78
2022/02/26 04:48:12;;;;;;;18.70;5.57;;;;;;;;;;5116168;28;20062;-77
2022/02/26 04:50:39;;;;;;;10.35;5.97;;;;;;;;;;5116795;28;20079;-77
2022/02/26 04:53:06;;;;;;;11.68;6.15;;;;;;;;;;5117036;28;20075;-77
2022/02/26 04:55:32;;;;;;;9.15;5.03;;;;;;;;;;5116495;28;20094;-77
2022/02/26 04:58:00;;;;;;;8.23;5.30;;;;;;;;;;5116642;28;20100;-78
2022/02/26 05:00:27;;;;;;;7.75;4.60;;;;;;;;;;5116110;28;20066;-77
2022/02/26 05:02:54;;;;;;;11.00;4.60;;;;;;;;;;5117187;28;20065;-77
2022/02/26 05:05:21;;;;;;;9.30;4.85;;;;;;;;;;5117257;28;20067;-78
2022/02/26 05:07:47;;;;;;;12.43;5.65;;;;;;;;;;5116895;28;20051;-78
2022/02/26 05:10:14;;;;;;;10.63;5.40;;;;;;;;;;5116398;28;20122;-78
2022/02/26 05:12:42;;;;;;;9.85;5.70;;;;;;;;;;5115831;28;20079;-78
2022/02/26 05:15:10;;;;;;;13.43;5.93;;;;;;;;;;5116224;28;20040;-77
2022/02/26 05:17:38;;;;;;;11.20;5.32;;;;;;;;;;5116832;28;20071;-77
2022/02/26 05:20:06;;;;;;;11.18;4.82;;;;;;;;;;5115774;28;20563;-77
2022/02/26 05:22:35;;;;;;;11.40;5.68;;;;;;;;;;5116078;28;20082;-77
2022/02/26 05:25:02;;;;;;;11.52;5.60;;;;;;;;;;5116366;28;20044;-77
2022/02/26 05:27:28;;;;;;;11.93;5.50;;;;;;;;;;5116080;28;20079;-77
2022/02/26 05:29:55;;;;;;;9.90;5.72;;;;;;;;;;5116455;28;20086;-78
2022/02/26 05:32:23;;;;;;;11.57;6.20;;;;;;;;;;5115904;28;20071;-78
2022/02/26 05:34:51;;;;;;;9.73;5.32;;;;;;;;;;5114659;28;20105;-77
2022/02/26 05:37:17;;;;;;;10.07;5.63;;;;;;;;;;5116657;28;20043;-77
2022/02/26 05:39:44;;;;;;;11.15;4.95;;;;;;;;;;5115884;28;20075;-77
2022/02/26 05:42:11;;;;;;;10.52;5.20;;;;;;;;;;5116035;28;20479;-78
2022/02/26 05:44:37;;;;;;;8.90;5.15;;;;;;;;;;5116966;28;20123;-77
2022/02/26 05:47:04;;;;;;;10.93;5.60;;;;;;;;;;5119578;28;20075;-78
2022/02/26 05:49:32;;;;;;;10.50;5.15;;;;;;;;;;5120283;28;20122;-78
2022/02/26 05:51:59;;;;;;;10.93;5.68;;;;;;;;;;5120232;28;20082;-78
2022/02/26 05:54:25;;;;;;;11.20;5.80;;;;;;;;;;5120196;28;20443;-78
2022/02/26 05:56:52;;;;;;;11.45;6.18;;;;;;;;;;5119484;28;20122;-77
2022/02/26 05:59:18;;;;;;;13.20;6.28;;;;;;;;;;5119498;28;20127;-77
2022/02/26 06:01:45;;;;;;;10.73;5.35;;;;;;;;;;5120278;28;20078;-77
2022/02/26 06:04:11;;;;;;;13.40;7.03;;;;;;;;;;5120241;28;20045;-77
2022/02/26 06:06:39;;;;;;;8.35;4.97;;;;;;;;;;5119875;28;20071;-77
2022/02/26 06:09:06;;;;;;;11.55;5.30;;;;;;;;;;5119792;28;20071;-77
2022/02/26 06:11:33;;;;;;;12.07;5.78;;;;;;;;;;5119801;28;20123;-77
2022/02/26 06:13:59;;;;;;;10.45;5.55;;;;;;;;;;5119818;28;20075;-77
2022/02/26 06:16:26;;;;;;;10.93;5.28;;;;;;;;;;5119594;28;20090;-77
2022/02/26 06:18:52;;;;;;;11.50;6.20;;;;;;;;;;5117350;28;20063;-77
2022/02/26 06:21:19;;;;;;;11.32;5.80;;;;;;;;;;5118393;28;20043;-77
2022/02/26 06:23:47;;;;;;;10.18;5.32;;;;;;;;;;5119401;28;20130;-77
2022/02/26 06:26:13;;;;;;;10.98;5.55;;;;;;;;;;5119300;28;20070;-77
2022/02/26 06:28:40;;;;;;;11.45;6.03;;;;;;;;;;5119465;28;20075;-78
2022/02/26 06:31:06;;;;;;;14.13;6.10;;;;;;;;;;5119183;28;20082;-77
2022/02/26 06:33:33;;;;;;;11.15;6.85;;;;;;;;;;5118958;28;20094;-78
2022/02/26 06:35:59;;;;;;;9.32;5.03;;;;;;;;;;5117746;28;20435;-77
2022/02/26 06:38:26;;;;;;;10.43;5.28;;;;;;;;;;5118933;28;20524;-77
2022/02/26 06:40:54;;;;;;;12.93;6.78;;;;;;;;;;5119453;28;20082;-77
2022/02/26 06:43:21;;;;;;;10.23;5.22;;;;;;;;;;5118698;28;20075;-77
2022/02/26 06:45:47;;;;;;;9.93;5.38;;;;;;;;;;5119151;28;20074;-77
2022/02/26 06:48:14;;;;;;;15.32;5.95;;;;;;;;;;5118361;28;20039;-77
2022/02/26 06:50:41;;;;;;;15.27;6.85;;;;;;;;;;5118769;28;20071;-77
2022/02/26 06:53:07;;;;;;;15.85;6.45;;;;;;;;;;5117775;28;20046;-77
2022/02/26 06:55:34;;;;;;;12.27;5.35;;;;;;;;;;5117358;28;20089;-76
2022/02/26 06:58:02;;;;;;;11.57;5.07;;;;;;;;;;5116150;28;20555;-77
2022/02/26 07:00:29;;;;;;;10.90;4.85;;;;;;;;;;5119193;28;20044;-77
2022/02/26 07:02:55;;;;;;;10.18;4.95;;;;;;;;;;5119683;28;20118;-77
2022/02/26 07:05:22;;;;;;;13.95;6.05;;;;;;;;;;5118212;28;20075;-77
2022/02/26 07:07:49;;;;;;;10.90;5.28;;;;;;;;;;5117354;28;20127;-76
2022/02/26 07:10:15;;;;;;;8.80;4.80;;;;;;;;;;5117831;28;20126;-76
2022/02/26 07:12:42;;;;;;;11.52;5.57;;;;;;;;;;5118373;28;20043;-77
2022/02/26 07:15:10;;;;;;;8.82;5.00;;;;;;;;;;5118197;28;20122;-78
2022/02/26 07:17:36;;;;;;;11.65;5.03;;;;;;;;;;5117582;28;20074;-77
2022/02/26 07:20:05;;;;;;;12.40;5.47;;;;;;;;;;5118335;28;20075;-77
2022/02/26 07:22:31;;;;;;;8.02;4.90;;;;;;;;;;5117937;28;20039;-77
2022/02/26 07:24:58;;;;;;;11.07;5.25;;;;;;;;;;5117327;28;20067;-77
2022/02/26 07:27:24;;;;;;;8.55;4.95;;;;;;;;;;5117093;28;20075;-77
2022/02/26 07:29:51;;;;;;;11.00;5.93;;;;;;;;;;5117869;28;20071;-77
2022/02/26 07:32:19;;;;;;;10.43;4.68;;;;;;;;;;5115515;28;20511;-77
2022/02/26 07:34:46;;;;;;;12.45;5.13;;;;;;;;;;5115904;28;20071;-78
2022/02/26 08:21:11;;;;;;;5.97;2.92;;;;;;;;;;1218714;22;24929;-78
2022/02/26 08:23:38;;;;;;;6.82;3.05;;;;;;;;;;5077083;28;20040;-78
2022/02/26 08:26:05;;;;;;;7.57;2.38;;;;;;;;;;5068976;28;20553;-78
2022/02/26 08:28:32;;;;;;;5.60;2.22;;;;;;;;;;5076916;28;20350;-78
2022/02/26 08:30:58;;;;;;;6.22;1.77;;;;;;;;;;5075765;28;20078;-78
2022/02/26 08:33:25;;;;;;;8.13;1.70;;;;;;;;;;5075629;28;20424;-80
2022/02/26 08:35:51;;;;;;;9.52;2.45;;;;;;;;;;5063479;28;20072;-78
2022/02/26 08:38:19;;;;;;;9.02;3.00;;;;;;;;;;5056614;28;20442;-78
2022/02/26 08:40:46;;;;;;;4.97;2.20;;;;;;;;;;5055836;28;20110;-77
2022/02/26 08:43:12;;;;;;;10.48;1.92;;;;;;;;;;5057881;28;20107;-78
2022/02/26 08:45:42;;;;;;;6.88;1.77;;;;;;;;;;5055879;28;20077;-78
2022/02/26 08:48:08;;;;;;;6.60;1.92;;;;;;;;;;5055636;28;20094;-79
2022/02/26 08:50:35;;;;;;;5.05;2.30;;;;;;;;;;5042455;28;20042;-79
2022/02/26 08:53:01;;;;;;;4.10;1.83;;;;;;;;;;5037931;28;20128;-81
2022/02/26 08:55:36;;;;;;;3.35;1.67;;;;;;;;;;5038510;28;20041;-79
2022/02/26 08:58:03;;;;;;;6.68;1.90;;;;;;;;;;5039725;28;20421;-79
2022/02/26 09:00:29;;;;;;;4.95;1.63;;;;;;;;;;5039793;28;20055;-79
2022/02/26 09:02:56;;;;;;;9.85;2.58;;;;;;;;;;5037054;28;20433;-79
2022/02/26 09:05:23;;;;;;;5.10;1.33;;;;;;;;;;5051328;28;20068;-79
2022/02/26 09:07:50;;;;;;;3.55;1.33;;;;;;;;;;5058601;28;20470;-80
2022/02/26 09:10:16;;;;;;;6.85;2.03;;;;;;;;;;5059991;28;20084;-79
2022/02/26 09:12:44;;;;;;;6.80;1.88;;;;;;;;;;5060459;28;20065;-81
2022/02/26 09:15:11;;;;;;;6.05;1.80;;;;;;;;;;5062853;28;20081;-80
2022/02/26 09:17:37;;;;;;;4.35;1.15;;;;;;;;;;5058027;28;20076;-80
2022/02/26 09:20:05;;;;;;;6.40;1.75;;;;;;;;;;5062932;28;20053;-81
2022/02/26 09:22:32;;;;;;;3.97;1.45;;;;;;;;;;5055523;28;20061;-80
2022/02/26 09:24:59;;;;;;;10.40;1.60;;;;;;;;;;5058245;28;20045;-80
2022/02/26 09:27:26;;;;;;;5.47;1.50;;;;;;;;;;5070357;28;20040;-82
2022/02/26 09:29:55;;;;;;;6.25;1.95;;;;;;;;;;5057637;28;20048;-81
2022/02/26 09:32:22;;;;;;;6.78;1.88;;;;;;;;;;5038838;28;20133;-82
2022/02/26 09:34:49;;;;;;;6.32;2.70;;;;;;;;;;5040788;28;20037;-81
2022/02/26 09:37:16;;;;;;;11.45;2.80;;;;;;;;;;5028249;28;20055;-81
2022/02/26 09:39:44;;;;;;;7.25;2.28;;;;;;;;;;5028946;28;20115;-82
2022/02/26 09:42:11;;;;;;;17.63;6.28;;;;;;;;;;5029230;28;20052;-82
2022/02/26 09:44:39;;;;;;;4.88;1.70;;;;;;;;;;5045738;28;20076;-81
2022/02/26 09:47:08;;;;;;;14.45;5.95;;;;;;;;;;5045618;28;20041;-81
2022/02/26 09:49:35;;;;;;;6.55;1.63;;;;;;;;;;5044938;28;20045;-81
2022/02/26 09:52:02;;;;;;;7.47;1.67;;;;;;;;;;5043703;28;20038;-82
2022/02/26 09:54:28;;;;;;;8.90;1.20;;;;;;;;;;5025364;28;20050;-82
2022/02/26 09:56:55;;;;;;;3.72;1.30;;;;;;;;;;5047609;28;20046;-81
2022/02/26 09:59:22;;;;;;;4.13;1.23;;;;;;;;;;5044721;28;20087;-81
2022/02/26 10:01:57;;;;;;;5.07;1.08;;;;;;;;;;5045867;28;20049;-82
2022/02/26 10:04:26;;;;;;;4.30;1.25;;;;;;;;;;5028708;28;20048;-81
2022/02/26 10:07:08;;;;;;;9.30;1.58;;;;;;;;;;5047405;28;20048;-81
2022/02/26 10:09:40;;;;;;;3.15;1.30;;;;;;;;;;5046471;28;20045;-82
2022/02/26 10:12:18;;;;;;;4.75;1.10;;;;;;;;;;5045806;28;20438;-81
2022/02/26 10:14:47;;;;;;;5.00;1.00;;;;;;;;;;5045543;28;20041;-81
2022/02/26 10:17:25;;;;;;;5.45;0.90;;;;;;;;;;5044656;28;20041;-81
2022/02/26 10:20:01;;;;;;;4.80;1.25;;;;;;;;;;5046586;28;20046;-81
2022/02/26 10:22:28;;;;;;;;;;;;;;;;;;5044858;28;20053;-81
2022/02/26 10:24:55;;;;;;;3.33;1.13;;;;;;;;;;5045714;28;19924;-81
2022/02/26 10:27:26;;;;;;;3.67;1.00;;;;;;;;;;5045341;28;20481;-81
2022/02/26 10:29:56;;;;;;;4.47;1.25;;;;;;;;;;5045984;28;20045;-81
2022/02/26 10:32:24;;;;;;;4.03;0.93;;;;;;;;;;5044992;28;20041;-82
2022/02/26 10:34:54;;;;;;;4.03;1.10;;;;;;;;;;5044750;28;20052;-82
2022/02/26 10:37:22;;;;;;;5.15;1.25;;;;;;;;;;5043959;28;20464;-81
2022/02/26 10:39:51;;;;;;;8.90;1.80;;;;;;;;;;5027362;28;20042;-81
2022/02/26 10:42:20;;;;;;;3.92;0.98;;;;;;;;;;5045211;28;20052;-81
2022/02/26 10:45:01;;;;;;;5.32;1.08;;;;;;;;;;5046366;28;20042;-81
2022/02/26 10:47:30;;;;;;;2.40;0.73;;;;;;;;;;5044832;28;20049;-81
2022/02/26 10:49:58;;;;;;;6.68;1.13;;;;;;;;;;5026338;28;20046;-81
2022/02/26 10:52:30;;;;;;;4.30;0.85;;;;;;;;;;5043413;28;20049;-81
2022/02/26 10:54:56;;;;;;;5.57;1.17;;;;;;;;;;5046372;28;20077;-82
2022/02/26 10:57:28;;;;;;;6.18;1.33;;;;;;;;;;5063517;28;20065;-81
2022/02/26 10:59:55;;;;;;;5.47;2.00;;;;;;;;;;5062420;28;20430;-81
2022/02/26 11:02:25;;;;;;;6.10;1.17;;;;;;;;;;5028361;28;20041;-81
2022/02/26 11:04:53;;;;;;;3.03;1.17;;;;;;;;;;5063395;28;20041;-81
2022/02/26 11:07:22;;;;;;;6.18;1.20;;;;;;;;;;5062531;28;20041;-81
2022/02/26 11:09:52;;;;;;;6.30;1.70;;;;;;;;;;5060055;28;20079;-83
2022/02/26 11:12:19;;;;;;;3.13;1.02;;;;;;;;;;5043217;28;20080;-84
2022/02/26 11:14:48;;;;;;;4.80;1.17;;;;;;;;;;5057992;28;20106;-83
2022/02/26 11:17:17;;;;;;;3.60;2.00;;;;;;;;;;5057949;28;20041;-82
2022/02/26 11:19:46;;;;;;;9.40;1.75;;;;;;;;;;5061685;28;20048;-81
2022/02/26 11:22:14;;;;;;;7.95;1.90;;;;;;;;;;5057209;28;20095;-82
2022/02/26 11:24:42;;;;;;;10.25;1.38;;;;;;;;;;5059507;28;20079;-82
2022/02/26 11:27:09;;;;;;;6.15;1.60;;;;;;;;;;5058820;28;20073;-82
2022/02/26 11:29:36;;;;;;;6.20;1.30;;;;;;;;;;5060650;28;20067;-82
2022/02/26 11:32:07;;;;;;;6.53;1.23;;;;;;;;;;5061814;28;20106;-82
2022/02/26 11:34:35;;;;;;;3.75;1.70;;;;;;;;;;5061068;28;20118;-82
2022/02/26 11:37:04;;;;;;;4.25;1.20;;;;;;;;;;5061500;28;20079;-81
2022/02/26 11:39:34;;;;;;;11.18;3.00;;;;;;;;;;5061658;28;20049;-81
2022/02/26 11:42:29;;;;;;;9.57;3.15;;;;;;;;;;5061734;28;20080;-81
2022/02/26 11:44:59;;;;;;;5.03;1.75;;;;;;;;;;5060954;28;20049;-82
2022/02/26 11:47:34;;;;;;;4.60;1.70;;;;;;;;;;5059960;28;20041;-82
2022/02/26 11:50:04;;;;;;;4.68;1.13;;;;;;;;;;5043668;28;20049;-82
2022/02/26 11:52:45;;;;;;;6.90;1.67;;;;;;;;;;5060242;28;20040;-82
2022/02/26 11:55:30;;;;;;;5.95;2.53;;;;;;;;;;5058457;28;20087;-83
2022/02/26 11:58:02;;;;;;;12.60;4.75;;;;;;;;;;5059535;28;20041;-83
2022/02/26 12:00:32;;;;;;;11.57;2.83;;;;;;;;;;5059178;28;20052;-83
2022/02/26 12:03:35;;;;;;;8.05;2.35;;;;;;;;;;5058404;28;20469;-83
2022/02/26 12:06:35;;;;;;;3.83;1.10;;;;;;;;;;5040163;28;20355;-84
2022/02/26 12:09:06;;;;;;;5.30;1.20;;;;;;;;;;5057532;28;20115;-83
2022/02/26 12:11:36;;;;;;;7.20;2.70;;;;;;;;;;5058132;28;20080;-80
2022/02/26 12:14:06;;;;;;;5.85;2.17;;;;;;;;;;5058239;28;20389;-84
2022/02/26 12:16:36;;;;;;;5.18;1.80;;;;;;;;;;5057707;28;20080;-83
2022/02/26 12:19:07;;;;;;;3.85;1.17;;;;;;;;;;5040007;28;20045;-84
2022/02/26 12:21:40;;;;;;;6.95;1.20;;;;;;;;;;5056543;28;20057;-84
2022/02/26 12:24:12;;;;;;;5.10;1.75;;;;;;;;;;5059151;28;20045;-84
2022/02/26 12:26:47;;;;;;;6.43;1.55;;;;;;;;;;5059202;28;20080;-84
2022/02/26 12:29:31;;;;;;;5.60;1.23;;;;;;;;;;5061226;28;20163;-83
2022/02/26 12:32:02;;;;;;;4.93;1.17;;;;;;;;;;5058237;28;20076;-83
2022/02/26 12:34:39;;;;;;;9.45;1.83;;;;;;;;;;5060582;28;20397;-83
2022/02/26 12:37:14;;;;;;;7.53;1.60;;;;;;;;;;5058895;28;20098;-84
2022/02/26 12:39:50;;;;;;;4.88;1.70;;;;;;;;;;5062833;28;20099;-84
2022/02/26 12:42:22;;;;;;;5.78;1.52;;;;;;;;;;5061065;28;20073;-84
2022/02/26 12:44:52;;;;;;;7.18;1.50;;;;;;;;;;5060636;28;20428;-81
2022/02/26 12:47:20;;;;;;;5.07;1.63;;;;;;;;;;5060189;28;20439;-82
2022/02/26 12:49:48;;;;;;;3.83;1.38;;;;;;;;;;5058668;28;20048;-83
2022/02/26 12:52:16;;;;;;;8.88;1.90;;;;;;;;;;5059543;28;20489;-83
2022/02/26 12:54:46;;;;;;;5.30;1.55;;;;;;;;;;5060019;28;20102;-83
2022/02/26 12:57:14;;;;;;;7.68;1.70;;;;;;;;;;5041945;28;20068;-83
2022/02/26 12:59:43;;;;;;;4.97;1.55;;;;;;;;;;5061333;28;20056;-83
2022/02/26 13:02:13;;;;;;;4.80;1.73;;;;;;;;;;5025777;28;20085;-83
2022/02/26 13:04:41;;;;;;;5.45;1.42;;;;;;;;;;5036756;28;20377;-83
2022/02/26 13:07:09;;;;;;;6.20;1.60;;;;;;;;;;5056580;28;20052;-80
2022/02/26 13:09:53;;;;;;;7.35;3.13;;;;;;;;;;5059039;28;20041;-83
2022/02/26 13:12:20;;;;;;;6.05;1.73;;;;;;;;;;5055549;28;20037;-83
2022/02/26 13:14:55;;;;;;;4.15;1.50;;;;;;;;;;5056830;28;20041;-83
2022/02/26 13:17:28;;;;;;;7.07;1.50;;;;;;;;;;5055911;28;20072;-83
2022/02/26 13:19:56;;;;;;;4.00;1.50;;;;;;;;;;5037690;28;20052;-84
2022/02/26 13:22:23;;;;;;;10.05;1.55;;;;;;;;;;5034291;28;20081;-84
2022/02/26 13:24:51;;;;;;;6.53;2.40;;;;;;;;;;5035822;28;20390;-84
2022/02/26 13:27:20;;;;;;;10.73;2.22;;;;;;;;;;5033927;28;20099;-83
2022/02/26 13:29:51;;;;;;;6.97;1.52;;;;;;;;;;5035080;28;20421;-83
2022/02/26 13:32:21;;;;;;;19.00;8.32;;;;;;;;;;5043139;28;20049;-84
2022/02/26 13:34:51;;;;;;;6.78;2.38;;;;;;;;;;5023266;28;20085;-84
2022/02/26 13:37:19;;;;;;;9.30;2.95;;;;;;;;;;5043173;28;20049;-84
2022/02/26 13:39:48;;;;;;;4.70;1.75;;;;;;;;;;5043184;28;20370;-85
2022/02/26 13:42:21;;;;;;;6.78;1.92;;;;;;;;;;5042710;28;20046;-84
2022/02/26 13:44:53;;;;;;;9.05;2.28;;;;;;;;;;5043287;28;20068;-83
2022/02/26 13:47:27;;;;;;;16.10;6.80;;;;;;;;;;5042146;28;20092;-84
2022/02/26 13:49:58;;;;;;;59.10;40.75;;;;;;;;;;5042791;28;20421;-84
2022/02/26 13:52:27;;;;;;;31.85;22.48;;;;;;;;;;5042189;28;20041;-83
2022/02/26 13:54:56;;;;;;;14.35;9.43;;;;;;;;;;5041895;28;20362;-84
2022/02/26 13:57:25;;;;;;;15.93;10.15;;;;;;;;;;5043828;28;20069;-84
2022/02/26 14:00:03;;;;;;;12.85;7.68;;;;;;;;;;5043554;28;20045;-83
2022/02/26 14:02:34;;;;;;;11.55;5.40;;;;;;;;;;5042850;28;20053;-84
2022/02/26 14:05:08;;;;;;;12.32;3.85;;;;;;;;;;5028109;28;20052;-83
2022/02/26 14:07:40;;;;;;;5.82;1.80;;;;;;;;;;5046676;28;20041;-83
2022/02/26 14:10:10;;;;;;;6.05;2.40;;;;;;;;;;5049461;28;20053;-84
2022/02/26 14:12:42;;;;;;;6.32;2.13;;;;;;;;;;5048821;28;20041;-83
2022/02/26 14:15:15;;;;;;;8.30;1.67;;;;;;;;;;5049311;28;20131;-85
2022/02/26 14:17:46;;;;;;;6.03;1.55;;;;;;;;;;5057305;28;20060;-84
2022/02/26 14:20:22;;;;;;;3.75;1.08;;;;;;;;;;5059961;28;20041;-81
2022/02/26 14:22:50;;;;;;;5.57;1.30;;;;;;;;;;5069592;28;20061;-82
2022/02/26 14:25:18;;;;;;;4.63;1.40;;;;;;;;;;5080867;28;20052;-82
2022/02/26 14:27:47;;;;;;;10.43;2.00;;;;;;;;;;5069003;28;20377;-85
2022/02/26 14:30:17;;;;;;;6.70;1.88;;;;;;;;;;5054131;28;20542;-84
2022/02/26 14:32:46;;;;;;;5.40;1.80;;;;;;;;;;5048275;28;20064;-84
2022/02/26 14:35:22;;;;;;;3.40;1.20;;;;;;;;;;5055069;28;20041;-83
2022/02/26 14:37:49;;;;;;;;;;;;;;;;;;5042540;28;20056;-84
2022/02/26 14:40:22;;;;;;;87.13;51.63;;;;;;;;;;5060383;28;19939;-83
2022/02/26 14:42:51;;;;;;;29.40;26.27;;;;;;;;;;5059422;28;20524;-83
2022/02/26 14:45:20;;;;;;;14.43;12.38;;;;;;;;;;5059387;28;20090;-83
2022/02/26 14:47:48;;;;;;;12.18;4.70;;;;;;;;;;5058085;28;20083;-83
2022/02/26 14:50:19;;;;;;;8.48;4.63;;;;;;;;;;5060507;28;20045;-83
2022/02/26 14:52:47;;;;;;;6.65;2.33;;;;;;;;;;5057678;28;20477;-84
2022/02/26 14:55:16;;;;;;;11.45;2.45;;;;;;;;;;5042135;28;20051;-83
2022/02/26 14:57:45;;;;;;;6.57;1.92;;;;;;;;;;5059100;28;20103;-83
2022/02/26 15:00:14;;;;;;;5.50;1.52;;;;;;;;;;5042251;28;20071;-83
2022/02/26 15:02:42;;;;;;;5.25;1.45;;;;;;;;;;5054383;28;20045;-83
2022/02/26 15:05:11;;;;;;;4.97;2.47;;;;;;;;;;5048624;28;20103;-83
2022/02/26 15:07:43;;;;;;;6.53;2.15;;;;;;;;;;5050525;28;20076;-84
2022/02/26 15:10:13;;;;;;;6.43;1.55;;;;;;;;;;5025920;28;20164;-84
2022/02/26 15:12:40;;;;;;;4.65;1.10;;;;;;;;;;5046528;28;20132;-85
2022/02/26 15:15:09;;;;;;;5.60;1.67;;;;;;;;;;5047358;28;20461;-83
2022/02/26 15:17:37;;;;;;;5.25;1.83;;;;;;;;;;5043639;28;20103;-84
2022/02/26 15:20:07;;;;;;;3.85;1.42;;;;;;;;;;5023778;28;20045;-83
2022/02/26 15:22:34;;;;;;;5.53;1.58;;;;;;;;;;5040028;28;20069;-83
2022/02/26 15:25:04;;;;;;;9.98;3.72;;;;;;;;;;5041826;28;20077;-83
2022/02/26 15:27:31;;;;;;;8.63;3.03;;;;;;;;;;5051828;28;20037;-84
2022/02/26 15:30:01;;;;;;;11.23;3.92;;;;;;;;;;5042811;28;20148;-83
2022/02/26 15:32:28;;;;;;;6.93;2.90;;;;;;;;;;5026012;28;20568;-84